Northeast Iowa Regional Airport Charles City US
ICAO: KCCY
IATA: CCY
Category: Medium
Scheduled Services: No

Elevation: 1125 ft
TransAlt. 18000 ft.

Airport Communications:
WATERLOO APP/DEP:118.9
AWOS 3:125.525
FORT DODGE RDO:122.4
CTAF/UNICOM:122.8

KCCY Zoom In..

If you have problems with the map follow the link
https://www.worldairports.se/pages/airport.php?
ICAO=KCCY

Runways:

(A) RW 04 length 2536 ft width 160 ft
LOC 108.30 / hdg 42

(B) RW 12 length 4000 ft width 75 ft
LOC 108.30 / hdg 122

(C) RW 18 length 1780 ft width 170 ft
LOC 108.30 / hdg 177

(D) RW 22 length 2536 ft width 160 ft
LOC 108.30 / hdg 222

(E) RW 30 length 4000 ft width 75 ft
LOC 108.30 / hdg 302

(F) RW 36 length 1780 ft width 170 ft
LOC 108.30 / hdg 357

Location; KCCY
Day. 22 / Time. 13.35 Zulu
* Altimeter: 29.99
* Temperature: -02° c. -28.4°f.
* Wind from: 180° Speed 15 kn with Gusts up to 22 kn.
Dewpoint: -03° c.
Visibility: 4 Statute Miles.
Clouds: Overcast 1400 ft.
Conditions: Mist.

KCCY 221335Z AUTO 18015G22KT 4SM BR OVC014 M02/M03 A2999 RMK AO2


Wind From 180°
Speed 15 kn.

 
 
jpsmedia worldairports.se 2020   terms of use